createdAt,value
2022-09-26T00:01:43.086Z,93673.00
2022-09-26T00:04:27.933Z,93671.00
2022-09-26T00:06:57.767Z,93663.00
2022-09-26T00:09:27.811Z,93665.00
2022-09-26T00:11:58.061Z,93668.00
2022-09-26T00:14:28.663Z,93659.00
2022-09-26T00:16:58.842Z,93664.00
2022-09-26T00:19:28.562Z,93663.00
2022-09-26T00:21:55.638Z,93656.00
2022-09-26T00:24:25.158Z,93653.00
2022-09-26T00:26:57.046Z,93657.00
2022-09-26T00:29:23.969Z,93653.00
2022-09-26T00:31:51.045Z,93657.00
2022-09-26T00:34:22.285Z,93656.00
2022-09-26T00:36:49.804Z,93647.00
2022-09-26T00:39:17.340Z,93640.00
2022-09-26T00:41:48.318Z,93644.00
2022-09-26T00:44:48.153Z,93639.00
2022-09-26T00:47:58.129Z,93642.00
2022-09-26T00:50:45.731Z,93636.00
2022-09-26T00:53:18.551Z,93630.00
2022-09-26T00:55:54.819Z,93630.00
2022-09-26T00:58:31.349Z,93625.00
2022-09-26T01:01:01.541Z,93620.00
2022-09-26T01:03:32.067Z,93617.00
2022-09-26T01:06:01.127Z,93616.00
2022-09-26T01:08:46.562Z,93625.00
2022-09-26T01:11:17.339Z,93619.00
2022-09-26T01:13:48.070Z,93610.00
2022-09-26T01:16:15.245Z,93597.00
2022-09-26T01:18:45.850Z,93602.00
2022-09-26T01:21:42.911Z,93602.00
2022-09-26T01:24:48.661Z,93600.00
2022-09-26T01:27:53.387Z,93609.00
2022-09-26T01:30:26.601Z,93603.00
2022-09-26T01:33:00.004Z,93593.00
2022-09-26T01:35:35.830Z,93611.00
2022-09-26T01:38:44.626Z,93591.00
2022-09-26T01:41:57.674Z,93607.00
2022-09-26T01:45:03.423Z,93596.00
2022-09-26T01:48:17.183Z,93601.00
2022-09-26T01:51:00.480Z,93598.00
2022-09-26T01:54:04.748Z,93580.00
2022-09-26T01:56:37.515Z,93580.00
2022-09-26T01:59:25.253Z,93584.00
2022-09-26T02:02:05.333Z,93587.00
2022-09-26T02:04:39.463Z,93587.00
2022-09-26T02:07:15.468Z,93575.00
2022-09-26T02:10:04.272Z,93575.00
2022-09-26T02:12:37.473Z,93575.00
2022-09-26T02:15:11.678Z,93579.00
2022-09-26T02:17:45.946Z,93571.00
2022-09-26T02:20:31.913Z,93563.00
2022-09-26T02:23:01.119Z,93570.00
2022-09-26T02:25:28.985Z,93567.00
2022-09-26T02:27:56.579Z,93564.00
2022-09-26T02:30:27.087Z,93570.00
2022-09-26T02:32:54.328Z,93571.00
2022-09-26T02:35:40.151Z,93570.00
2022-09-26T02:38:09.877Z,93562.00
2022-09-26T02:41:18.194Z,93565.00
2022-09-26T02:43:57.596Z,93556.00
2022-09-26T02:46:58.356Z,93561.00
2022-09-26T02:50:17.697Z,93568.00
2022-09-26T02:53:12.175Z,93552.00
2022-09-26T02:56:01.545Z,93560.00
2022-09-26T02:58:52.654Z,93551.00
2022-09-26T03:01:54.457Z,93549.00
2022-09-26T03:04:36.020Z,93549.00
2022-09-26T03:07:10.648Z,93548.00
2022-09-26T03:09:39.563Z,93542.00
2022-09-26T03:12:10.027Z,93551.00
2022-09-26T03:14:40.359Z,93546.00
2022-09-26T03:17:10.577Z,93532.00
2022-09-26T03:19:49.266Z,93539.00
2022-09-26T03:22:19.150Z,93538.00
2022-09-26T03:24:46.259Z,93536.00
2022-09-26T03:27:14.909Z,93536.00
2022-09-26T03:29:42.039Z,93538.00
2022-09-26T03:32:11.227Z,93553.00
2022-09-26T03:34:40.724Z,93537.00
2022-09-26T03:37:09.932Z,93534.00
2022-09-26T03:39:39.304Z,93526.00
2022-09-26T03:42:06.378Z,93534.00
2022-09-26T03:44:33.358Z,93528.00
2022-09-26T03:47:03.380Z,93528.00
2022-09-26T03:49:30.525Z,93519.00
2022-09-26T03:52:00.168Z,93518.00
2022-09-26T03:54:30.433Z,93521.00
2022-09-26T03:56:57.392Z,93509.00
2022-09-26T03:59:24.491Z,93507.00
2022-09-26T04:01:54.665Z,93502.00
2022-09-26T04:04:21.754Z,93500.00
2022-09-26T04:06:52.227Z,93501.00
2022-09-26T04:09:19.471Z,93489.00
2022-09-26T04:11:46.663Z,93490.00
2022-09-26T04:14:13.640Z,93478.00
2022-09-26T04:16:43.675Z,93484.00
2022-09-26T04:19:14.211Z,93488.00
2022-09-26T04:21:42.544Z,93484.00
2022-09-26T04:24:15.032Z,93485.00
2022-09-26T04:26:45.621Z,93482.00
2022-09-26T04:29:15.482Z,93473.00
2022-09-26T04:31:42.841Z,93464.00
2022-09-26T04:34:11.573Z,93460.00
2022-09-26T04:36:41.648Z,93460.00
2022-09-26T04:39:08.770Z,93461.00
2022-09-26T04:41:39.472Z,93460.00
2022-09-26T04:44:06.437Z,93458.00
2022-09-26T04:46:35.206Z,93465.00
2022-09-26T04:49:07.764Z,93470.00
2022-09-26T04:51:34.749Z,93466.00
2022-09-26T04:54:01.735Z,93468.00
2022-09-26T05:20:20.391Z,93450.00
2022-09-26T05:22:47.306Z,93446.00
2022-09-26T05:25:35.730Z,93446.00
2022-09-26T05:28:04.282Z,93449.00
2022-09-26T05:30:33.740Z,93459.00
2022-09-26T05:33:14.965Z,93449.00
2022-09-26T05:35:54.284Z,93451.00
2022-09-26T05:38:27.316Z,93445.00
2022-09-26T05:41:08.103Z,93448.00
2022-09-26T05:44:02.917Z,93449.00
2022-09-26T05:46:37.378Z,93449.00
2022-09-26T05:49:04.355Z,93458.00
2022-09-26T05:51:45.694Z,93476.00
2022-09-26T05:54:14.877Z,93472.00
2022-09-26T05:56:41.799Z,93466.00
2022-09-26T05:59:09.084Z,93469.00
2022-09-26T06:01:36.303Z,93461.00
2022-09-26T06:04:06.453Z,93463.00
2022-09-26T06:06:33.721Z,93461.00
2022-09-26T06:09:03.819Z,93458.00
2022-09-26T06:11:33.312Z,93460.00
2022-09-26T06:14:02.780Z,93456.00
2022-09-26T06:16:34.323Z,93465.00
2022-09-26T06:19:02.540Z,93453.00
2022-09-26T06:21:31.738Z,93452.00
2022-09-26T06:23:58.619Z,93442.00
2022-09-26T06:26:28.900Z,93435.00
2022-09-26T06:28:58.228Z,93427.00
2022-09-26T06:31:26.165Z,93434.00
2022-09-26T06:33:58.613Z,93437.00
2022-09-26T06:36:27.940Z,93441.00
2022-09-26T06:38:58.486Z,93432.00
2022-09-26T06:41:27.637Z,93418.00
2022-09-26T06:43:54.828Z,93404.00
2022-09-26T06:46:23.979Z,93412.00
2022-09-26T06:48:53.505Z,93428.00
2022-09-26T06:51:20.563Z,93419.00
2022-09-26T06:53:50.178Z,93411.00
2022-09-26T06:56:17.278Z,93412.00
2022-09-26T06:58:49.671Z,93410.00
2022-09-26T07:01:19.200Z,93419.00
2022-09-26T07:03:46.640Z,93412.00
2022-09-26T07:06:14.365Z,93411.00
2022-09-26T07:09:01.517Z,93407.00
2022-09-26T07:11:45.962Z,93400.00
2022-09-26T07:14:17.821Z,93408.00
2022-09-26T07:16:51.993Z,93399.00
2022-09-26T07:19:25.936Z,93410.00
2022-09-26T07:21:55.301Z,93403.00
2022-09-26T07:24:22.220Z,93408.00
2022-09-26T07:26:53.807Z,93400.00
2022-09-26T07:29:20.666Z,93404.00
2022-09-26T07:31:47.599Z,93412.00
2022-09-26T07:34:18.146Z,93411.00
2022-09-26T07:36:48.247Z,93415.00
2022-09-26T07:39:15.329Z,93408.00
2022-09-26T07:41:46.926Z,93409.00
2022-09-26T07:45:08.734Z,93398.00
2022-09-26T07:47:22.697Z,93413.00
2022-09-26T07:50:10.485Z,93408.00
2022-09-26T07:52:43.099Z,93411.00
2022-09-26T07:55:13.213Z,93404.00
2022-09-26T07:57:40.263Z,93404.00
2022-09-26T08:00:12.868Z,93403.00
2022-09-26T08:02:46.645Z,93407.00
2022-09-26T08:05:22.284Z,93404.00
2022-09-26T08:07:51.654Z,93402.00
2022-09-26T08:10:24.453Z,93399.00
2022-09-26T08:12:51.332Z,93386.00
2022-09-26T08:15:18.309Z,93371.00
2022-09-26T08:17:45.194Z,93372.00
2022-09-26T08:20:14.590Z,93381.00
2022-09-26T08:22:46.415Z,93382.00
2022-09-26T08:25:13.304Z,93381.00
2022-09-26T08:27:43.657Z,93383.00
2022-09-26T08:30:13.641Z,93378.00
2022-09-26T08:32:44.436Z,93385.00
2022-09-26T08:35:14.923Z,93382.00
2022-09-26T08:37:43.940Z,93379.00
2022-09-26T08:40:11.432Z,93379.00
2022-09-26T08:43:28.660Z,93377.00
2022-09-26T08:46:34.557Z,93385.00
2022-09-26T08:49:19.316Z,93390.00
2022-09-26T08:51:52.856Z,93386.00
2022-09-26T08:54:28.799Z,93397.00
2022-09-26T08:57:14.571Z,93388.00
2022-09-26T08:59:46.852Z,93388.00
2022-09-26T09:02:34.551Z,93388.00
2022-09-26T09:05:10.358Z,93385.00
2022-09-26T09:07:37.272Z,93393.00
2022-09-26T09:10:22.501Z,93381.00
2022-09-26T09:13:04.445Z,93389.00
2022-09-26T09:15:54.952Z,93382.00
2022-09-26T09:18:50.206Z,93384.00
2022-09-26T09:22:07.107Z,93381.00
2022-09-26T09:24:45.757Z,93375.00
2022-09-26T09:27:53.457Z,93373.00
2022-09-26T09:30:28.132Z,93370.00
2022-09-26T09:33:21.590Z,93369.00
2022-09-26T09:35:52.750Z,93368.00
2022-09-26T09:38:27.148Z,93365.00
2022-09-26T09:41:19.091Z,93358.00
2022-09-26T09:44:02.323Z,93353.00
2022-09-26T09:46:36.741Z,93344.00
2022-09-26T09:49:09.942Z,93345.00
2022-09-26T09:52:14.286Z,93340.00
2022-09-26T09:55:13.214Z,93330.00
2022-09-26T09:58:13.490Z,93332.00
2022-09-26T10:00:56.296Z,93326.00
2022-09-26T10:03:37.783Z,93324.00
2022-09-26T10:06:44.796Z,93322.00
2022-09-26T10:08:56.684Z,93316.00
2022-09-26T10:11:28.219Z,93318.00
2022-09-26T10:17:10.398Z,93303.00
2022-09-26T10:19:46.369Z,93301.00
2022-09-26T10:22:32.767Z,93310.00
2022-09-26T10:25:26.313Z,93305.00
2022-09-26T10:27:56.389Z,93295.00
2022-09-26T10:30:32.226Z,93297.00
2022-09-26T10:33:04.064Z,93294.00
2022-09-26T10:35:52.815Z,93295.00
2022-09-26T10:38:28.649Z,93286.00
2022-09-26T10:41:01.508Z,93289.00
2022-09-26T10:43:33.807Z,93282.00
2022-09-26T10:46:16.396Z,93286.00
2022-09-26T10:48:55.006Z,93273.00
2022-09-26T10:51:50.287Z,93273.00
2022-09-26T10:54:25.301Z,93273.00
2022-09-26T10:56:58.016Z,93269.00
2022-09-26T10:59:31.446Z,93263.00
2022-09-26T11:02:02.531Z,93264.00
2022-09-26T11:04:49.658Z,93262.00
2022-09-26T11:07:29.166Z,93273.00
2022-09-26T11:10:05.230Z,93270.00
2022-09-26T11:12:39.969Z,93263.00
2022-09-26T11:15:13.783Z,93265.00
2022-09-26T11:17:49.204Z,93257.00
2022-09-26T11:20:50.621Z,93255.00
2022-09-26T11:24:00.342Z,93253.00
2022-09-26T11:26:40.968Z,93243.00
2022-09-26T11:29:28.768Z,93248.00
2022-09-26T11:32:00.471Z,93231.00
2022-09-26T11:34:33.192Z,93230.00
2022-09-26T11:37:13.449Z,93227.00
2022-09-26T11:40:31.694Z,93218.00
2022-09-26T11:43:19.676Z,93217.00
2022-09-26T11:46:25.252Z,93211.00
2022-09-26T11:49:26.590Z,93205.00
2022-09-26T11:52:26.158Z,93209.00
2022-09-26T11:55:09.152Z,93208.00
2022-09-26T11:58:04.466Z,93201.00
2022-09-26T12:01:05.249Z,93210.00
2022-09-26T12:04:27.225Z,93205.00
2022-09-26T12:07:18.917Z,93196.00
2022-09-26T12:10:26.272Z,93200.00
2022-09-26T12:13:19.154Z,93191.00
2022-09-26T12:16:22.198Z,93194.00
2022-09-26T12:18:58.099Z,93187.00
2022-09-26T12:22:19.979Z,93181.00
2022-09-26T12:24:53.044Z,93183.00
2022-09-26T12:27:44.098Z,93184.00
2022-09-26T12:31:05.457Z,93175.00
2022-09-26T12:34:08.562Z,93194.00
2022-09-26T12:36:50.920Z,93182.00
2022-09-26T12:40:22.527Z,93176.00
2022-09-26T12:43:29.349Z,93179.00
2022-09-26T12:46:42.463Z,93164.00
2022-09-26T12:49:47.651Z,93152.00
2022-09-26T12:52:51.837Z,93157.00
2022-09-26T12:55:43.133Z,93153.00
2022-09-26T12:58:25.177Z,93137.00
2022-09-26T13:01:23.761Z,93141.00
2022-09-26T13:04:21.011Z,93137.00
2022-09-26T13:07:25.086Z,93130.00
2022-09-26T13:10:10.402Z,93134.00
2022-09-26T13:13:23.142Z,93132.00
2022-09-26T13:16:02.104Z,93133.00
2022-09-26T13:18:39.785Z,93129.00
2022-09-26T13:21:12.700Z,93126.00
2022-09-26T13:23:46.871Z,93132.00
2022-09-26T13:26:43.782Z,93134.00
2022-09-26T13:29:18.295Z,93133.00
2022-09-26T13:31:58.736Z,93128.00
2022-09-26T13:34:33.473Z,93118.00
2022-09-26T13:37:07.922Z,93117.00
2022-09-26T13:39:53.715Z,93112.00
2022-09-26T13:42:45.224Z,93107.00
2022-09-26T13:45:56.507Z,93117.00
2022-09-26T13:48:50.066Z,93116.00
2022-09-26T13:51:30.987Z,93107.00
2022-09-26T13:54:20.565Z,93116.00
2022-09-26T13:56:49.967Z,93108.00
2022-09-26T13:59:23.144Z,93110.00
2022-09-26T14:02:25.290Z,93096.00
2022-09-26T14:05:01.352Z,93102.00
2022-09-26T14:07:58.624Z,93101.00
2022-09-26T14:10:34.811Z,93104.00
2022-09-26T14:13:05.874Z,93089.00
2022-09-26T14:16:01.386Z,93087.00
2022-09-26T14:19:06.522Z,93086.00
2022-09-26T14:21:33.509Z,93087.00
2022-09-26T14:24:42.213Z,93080.00
2022-09-26T14:27:12.104Z,93083.00
2022-09-26T14:29:38.915Z,93075.00
2022-09-26T14:32:10.790Z,93071.00
2022-09-26T14:34:47.640Z,93069.00
2022-09-26T14:37:42.478Z,93063.00
2022-09-26T14:40:29.453Z,93045.00
2022-09-26T14:43:13.371Z,93057.00
2022-09-26T14:45:41.281Z,93055.00
2022-09-26T14:48:35.902Z,93056.00
2022-09-26T14:51:15.600Z,93068.00
2022-09-26T14:53:48.666Z,93055.00
2022-09-26T14:56:29.240Z,93046.00
2022-09-26T14:59:16.366Z,93042.00
2022-09-26T15:01:45.284Z,93039.00
2022-09-26T15:04:33.326Z,93036.00
2022-09-26T15:07:12.645Z,93039.00
2022-09-26T15:09:57.607Z,93034.00
2022-09-26T15:12:48.534Z,93042.00
2022-09-26T15:15:52.268Z,93039.00
2022-09-26T15:18:34.643Z,93035.00
2022-09-26T15:21:28.634Z,93035.00
2022-09-26T15:23:57.551Z,93028.00
2022-09-26T15:26:33.411Z,93025.00
2022-09-26T15:29:01.469Z,93027.00
2022-09-26T15:31:43.446Z,93020.00
2022-09-26T15:34:13.151Z,93016.00
2022-09-26T15:36:42.179Z,93021.00
2022-09-26T15:39:31.057Z,93024.00
2022-09-26T15:42:48.779Z,93017.00
2022-09-26T15:45:17.131Z,93022.00
2022-09-26T15:47:44.278Z,93018.00
2022-09-26T15:50:23.948Z,93016.00
2022-09-26T15:53:19.651Z,93013.00
2022-09-26T15:56:10.574Z,93005.00
2022-09-26T15:59:07.116Z,93000.00
2022-09-26T16:01:44.066Z,93009.00
2022-09-26T16:04:27.038Z,93009.00
2022-09-26T16:07:04.428Z,92999.00
2022-09-26T16:09:36.353Z,93011.00
2022-09-26T16:12:17.166Z,93005.00
2022-09-26T16:14:51.310Z,93001.00
2022-09-26T16:17:54.295Z,93000.00
2022-09-26T16:20:23.843Z,92996.00
2022-09-26T16:23:00.364Z,92998.00
2022-09-26T16:25:53.547Z,92997.00
2022-09-26T16:28:42.781Z,92995.00
2022-09-26T16:31:24.490Z,92999.00
2022-09-26T16:33:56.875Z,92998.00
2022-09-26T16:36:35.678Z,92994.00
2022-09-26T16:39:07.234Z,92998.00
2022-09-26T16:44:35.705Z,93005.00
2022-09-26T16:47:35.278Z,93004.00
2022-09-26T16:50:33.117Z,92991.00
2022-09-26T16:53:06.342Z,92996.00
2022-09-26T16:55:36.443Z,92997.00
2022-09-26T16:58:05.391Z,93000.00
2022-09-26T17:00:54.345Z,92998.00
2022-09-26T17:03:26.766Z,92993.00
2022-09-26T17:05:55.795Z,92991.00
2022-09-26T17:08:23.876Z,92985.00
2022-09-26T17:10:53.600Z,92979.00
2022-09-26T17:13:24.708Z,92982.00
2022-09-26T17:15:57.408Z,92989.00
2022-09-26T17:18:33.293Z,92973.00
2022-09-26T17:21:03.586Z,92983.00
2022-09-26T17:23:42.076Z,92972.00
2022-09-26T17:26:21.802Z,92972.00
2022-09-26T17:28:55.027Z,92973.00
2022-09-26T17:31:22.104Z,92965.00
2022-09-26T17:33:54.181Z,92968.00
2022-09-26T17:36:27.984Z,92958.00
2022-09-26T17:39:07.158Z,92965.00
2022-09-26T17:41:37.992Z,92961.00
2022-09-26T17:44:04.946Z,92954.00
2022-09-26T17:46:38.433Z,92951.00
2022-09-26T17:49:11.055Z,92934.00
2022-09-26T17:51:38.132Z,92944.00
2022-09-26T17:54:07.474Z,92944.00
2022-09-26T17:56:34.559Z,92951.00
2022-09-26T17:59:06.251Z,92947.00
2022-09-26T18:01:36.212Z,92947.00
2022-09-26T18:04:07.521Z,92949.00
2022-09-26T18:06:36.064Z,92957.00
2022-09-26T18:09:10.760Z,92952.00
2022-09-26T18:11:38.605Z,92942.00
2022-09-26T18:14:09.320Z,92951.00
2022-09-26T18:16:36.432Z,92938.00
2022-09-26T18:19:07.695Z,92930.00
2022-09-26T18:21:36.010Z,92938.00
2022-09-26T18:24:06.752Z,92925.00
2022-09-26T18:26:42.528Z,92921.00
2022-09-26T18:29:16.835Z,92922.00
2022-09-26T18:31:46.031Z,92931.00
2022-09-26T18:34:19.944Z,92926.00
2022-09-26T18:36:52.846Z,92918.00
2022-09-26T18:39:19.827Z,92927.00
2022-09-26T18:41:55.676Z,92913.00
2022-09-26T18:44:23.963Z,92908.00
2022-09-26T18:46:51.153Z,92905.00
2022-09-26T18:49:18.463Z,92903.00
2022-09-26T18:51:46.321Z,92898.00
2022-09-26T18:54:16.966Z,92899.00
2022-09-26T18:57:03.042Z,92897.00
2022-09-26T18:59:32.186Z,92901.00
2022-09-26T19:02:01.860Z,92884.00
2022-09-26T19:04:32.658Z,92889.00
2022-09-26T19:07:06.601Z,92888.00
2022-09-26T19:09:38.090Z,92886.00
2022-09-26T19:12:07.752Z,92882.00
2022-09-26T19:14:37.312Z,92870.00
2022-09-26T19:17:04.824Z,92870.00
2022-09-26T19:19:34.995Z,92863.00
2022-09-26T19:22:11.398Z,92861.00
2022-09-26T19:24:48.610Z,92868.00
2022-09-26T19:27:19.299Z,92861.00
2022-09-26T19:30:07.064Z,92848.00
2022-09-26T19:32:52.452Z,92859.00
2022-09-26T19:35:30.666Z,92857.00
2022-09-26T19:37:59.128Z,92862.00
2022-09-26T19:40:27.236Z,92860.00
2022-09-26T19:42:55.155Z,92853.00
2022-09-26T19:45:22.418Z,92851.00
2022-09-26T19:47:54.688Z,92857.00
2022-09-26T19:50:26.071Z,92850.00
2022-09-26T19:52:56.217Z,92841.00
2022-09-26T19:55:29.200Z,92849.00
2022-09-26T19:58:19.756Z,92852.00
2022-09-26T20:01:02.547Z,92851.00
2022-09-26T20:03:34.852Z,92846.00
2022-09-26T20:06:02.602Z,92840.00
2022-09-26T20:08:35.296Z,92841.00
2022-09-26T20:11:02.343Z,92836.00
2022-09-26T20:13:51.284Z,92838.00
2022-09-26T20:16:18.644Z,92831.00
2022-09-26T20:18:48.828Z,92835.00
2022-09-26T20:21:20.660Z,92838.00
2022-09-26T20:23:47.711Z,92838.00
2022-09-26T20:26:15.387Z,92841.00
2022-09-26T20:28:42.846Z,92827.00
2022-09-26T20:31:27.253Z,92829.00
2022-09-26T20:34:00.086Z,92823.00
2022-09-26T20:36:35.788Z,92837.00
2022-09-26T20:39:07.383Z,92824.00
2022-09-26T20:41:39.202Z,92823.00
2022-09-26T20:44:10.675Z,92824.00
2022-09-26T20:46:49.697Z,92814.00
2022-09-26T20:49:24.935Z,92813.00
2022-09-26T20:51:53.452Z,92799.00
2022-09-26T20:54:32.127Z,92795.00
2022-09-26T20:57:02.594Z,92794.00
2022-09-26T20:59:29.857Z,92785.00
2022-09-26T21:01:57.862Z,92790.00
2022-09-26T21:04:32.640Z,92782.00
2022-09-26T21:06:59.914Z,92782.00
2022-09-26T21:09:26.820Z,92785.00
2022-09-26T21:11:55.905Z,92796.00
2022-09-26T21:14:22.867Z,92792.00
2022-09-26T21:16:54.439Z,92785.00
2022-09-26T21:19:24.375Z,92787.00
2022-09-26T21:21:52.333Z,92782.00
2022-09-26T21:24:29.998Z,92763.00
2022-09-26T21:26:59.474Z,92766.00
2022-09-26T21:29:27.690Z,92767.00
2022-09-26T21:31:58.887Z,92773.00
2022-09-26T21:34:32.208Z,92768.00
2022-09-26T21:37:00.467Z,92772.00
2022-09-26T21:39:28.778Z,92766.00
2022-09-26T21:42:02.365Z,92763.00
2022-09-26T21:44:40.567Z,92755.00
2022-09-26T21:47:07.492Z,92750.00
2022-09-26T21:49:36.989Z,92753.00
2022-09-26T21:52:12.170Z,92754.00
2022-09-26T21:54:48.262Z,92747.00
2022-09-26T21:57:27.471Z,92743.00
2022-09-26T21:59:58.503Z,92731.00
2022-09-26T22:02:25.974Z,92730.00
2022-09-26T22:04:52.991Z,92718.00
2022-09-26T22:07:20.593Z,92716.00
2022-09-26T22:09:50.013Z,92717.00
2022-09-26T22:12:16.957Z,92715.00
2022-09-26T22:14:43.903Z,92705.00
2022-09-26T22:17:13.810Z,92702.00
2022-09-26T22:19:43.201Z,92705.00
2022-09-26T22:22:12.805Z,92691.00
2022-09-26T22:24:39.733Z,92701.00
2022-09-26T22:27:06.610Z,92696.00
2022-09-26T22:29:33.563Z,92689.00
2022-09-26T22:32:01.387Z,92679.00
2022-09-26T22:34:32.220Z,92681.00
2022-09-26T22:36:59.118Z,92675.00
2022-09-26T22:39:28.954Z,92673.00
2022-09-26T22:41:58.851Z,92667.00
2022-09-26T22:44:25.957Z,92664.00
2022-09-26T22:46:52.853Z,92659.00
2022-09-26T22:49:23.014Z,92661.00
2022-09-26T22:51:49.928Z,92654.00
2022-09-26T22:54:20.033Z,92644.00
2022-09-26T22:56:49.914Z,92645.00
2022-09-26T22:59:16.854Z,92621.00
2022-09-26T23:01:44.394Z,92634.00
2022-09-26T23:04:13.864Z,92639.00
2022-09-26T23:06:40.765Z,92634.00
2022-09-26T23:17:07.797Z,92623.00
2022-09-26T23:19:34.754Z,92618.00
2022-09-26T23:22:01.754Z,92612.00
2022-09-26T23:24:28.787Z,92617.00
2022-09-26T23:26:58.700Z,92613.00
2022-09-26T23:29:26.498Z,92608.00
2022-09-26T23:31:53.687Z,92612.00
2022-09-26T23:34:23.340Z,92606.00
2022-09-26T23:36:55.004Z,92598.00
2022-09-26T23:39:24.415Z,92591.00
2022-09-26T23:41:51.644Z,92589.00
2022-09-26T23:44:19.897Z,92583.00
2022-09-26T23:46:51.530Z,92583.00
2022-09-26T23:49:18.465Z,92583.00
2022-09-26T23:51:47.457Z,92570.00
2022-09-26T23:54:14.452Z,92566.00
2022-09-26T23:56:41.714Z,92561.00
2022-09-26T23:59:08.889Z,92551.00
